Time;durP1;ratioP1;P1;durP2;ratioP2;P2;SDS_P1;SDS_P2;PMS_P1;PMS_P2;Temp;Humidity;BMP_temperature;BMP_pressure;BME280_temperature;BME280_humidity;BME280_pressure;Samples;Min_cycle;Max_cycle;Signal;HPM_P1;HPM_P2
2023/03/09 00:00:21;;;;;;;;;;;;;;;20.59;35.19;98880.28;7259000;19;153576;-55
2023/03/09 00:02:48;;;;;;;;;;;;;;;20.57;34.92;98870.59;7259567;19;153501;-55
2023/03/09 00:05:16;;;;;;;;;;;;;;;20.58;34.79;98872.25;7257185;19;153739;-55
2023/03/09 00:07:44;;;;;;;;;;;;;;;20.59;34.93;98869.06;7258309;19;153342;-55
2023/03/09 00:10:12;;;;;;;;;;;;;;;20.58;35.30;98867.41;7257181;19;154684;-57
2023/03/09 00:12:39;;;;;;;;;;;;;;;20.57;35.32;98876.22;7265379;19;153930;-56
2023/03/09 00:15:07;;;;;;;;;;;;;;;20.54;35.08;98883.34;7258485;19;153870;-55
2023/03/09 00:17:34;;;;;;;;;;;;;;;20.52;35.45;98893.31;7257525;19;154413;-55
2023/03/09 00:20:14;;;;;;;;;;;;;;;20.53;35.60;98900.56;7255187;19;154155;-55
2023/03/09 00:22:41;;;;;;;;;;;;;;;20.49;35.47;98911.66;7259763;19;153248;-55
2023/03/09 00:25:13;;;;;;;;;;;;;;;20.50;35.67;98909.66;7257097;19;153931;-56
2023/03/09 00:27:41;;;;;;;;;;;;;;;20.49;35.61;98910.88;7256167;19;154392;-55
2023/03/09 00:30:09;;;;;;;;;;;;;;;20.46;35.58;98903.97;7256296;19;153430;-55
2023/03/09 00:32:37;;;;;;;;;;;;;;;20.44;35.72;98902.72;7256054;19;154247;-56
2023/03/09 00:35:04;;;;;;;;;;;;;;;20.40;36.11;98909.00;7265156;19;155095;-55
2023/03/09 00:37:32;;;;;;;;;;;;;;;20.38;35.82;98907.75;7260055;19;153256;-56
2023/03/09 00:39:59;;;;;;;;;;;;;;;20.37;36.17;98908.91;7256840;19;154259;-56
2023/03/09 00:42:26;;;;;;;;;;;;;;;20.33;36.34;98900.41;7256461;19;155145;-56
2023/03/09 00:44:53;;;;;;;;;;;;;;;20.31;36.01;98899.13;7258309;19;154174;-56
2023/03/09 00:47:20;;;;;;;;;;;;;;;20.28;36.14;98895.03;7254948;19;153052;-56
2023/03/09 00:49:49;;;;;;;;;;;;;;;20.25;36.27;98908.94;7256732;19;153064;-55
2023/03/09 00:52:17;;;;;;;;;;;;;;;20.22;36.29;98907.66;7258672;19;152906;-56
2023/03/09 00:54:44;;;;;;;;;;;;;;;20.20;36.84;98914.81;7252344;19;153816;-55
2023/03/09 00:57:10;;;;;;;;;;;;;;;20.18;36.64;98926.34;7266912;19;153162;-55
2023/03/09 00:59:37;;;;;;;;;;;;;;;20.13;36.56;98929.41;7256375;19;154202;-55
2023/03/09 01:02:08;;;;;;;;;;;;;;;20.12;36.68;98927.81;7255607;19;152605;-55
2023/03/09 01:04:35;;;;;;;;;;;;;;;20.07;36.69;98924.41;7257663;19;153360;-55
2023/03/09 01:07:03;;;;;;;;;;;;;;;20.04;36.60;98920.31;7258929;19;154250;-56
2023/03/09 01:09:30;;;;;;;;;;;;;;;20.03;37.05;98932.72;7254781;19;152997;-55
2023/03/09 01:11:57;;;;;;;;;;;;;;;19.99;36.69;98946.63;7257619;19;152262;-56
2023/03/09 01:14:24;;;;;;;;;;;;;;;19.98;36.77;98958.19;7250648;19;153270;-55
2023/03/09 01:16:52;;;;;;;;;;;;;;;19.93;37.25;98964.03;7266489;19;154436;-55
2023/03/09 01:19:19;;;;;;;;;;;;;;;19.90;36.96;98961.94;7253268;19;154592;-55
2023/03/09 01:21:46;;;;;;;;;;;;;;;19.86;36.85;98961.81;7258338;19;153534;-55
2023/03/09 01:24:13;;;;;;;;;;;;;;;19.85;37.31;98962.97;7255423;19;154016;-55
2023/03/09 01:26:40;;;;;;;;;;;;;;;19.82;36.87;98958.09;7256067;19;153280;-55
2023/03/09 01:29:07;;;;;;;;;;;;;;;19.80;37.32;98959.63;7257257;19;153434;-56
2023/03/09 01:31:34;;;;;;;;;;;;;;;19.78;37.19;98967.56;7258075;19;154197;-56
2023/03/09 01:34:01;;;;;;;;;;;;;;;19.75;37.22;98968.28;7253976;19;152112;-56
2023/03/09 01:36:28;;;;;;;;;;;;;;;19.71;36.96;98961.75;7257371;19;153427;-56
2023/03/09 01:38:55;;;;;;;;;;;;;;;19.67;37.25;98961.59;7260181;19;154526;-55
2023/03/09 01:41:22;;;;;;;;;;;;;;;19.63;37.19;98974.69;7257656;19;152744;-56
2023/03/09 01:43:50;;;;;;;;;;;;;;;19.59;37.62;98976.56;7254660;19;154196;-56
2023/03/09 01:46:20;;;;;;;;;;;;;;;19.60;37.16;98983.78;7252607;19;154156;-56
2023/03/09 01:48:49;;;;;;;;;;;;;;;19.56;37.31;98982.88;7255641;19;152558;-56
2023/03/09 01:51:17;;;;;;;;;;;;;;;19.52;37.34;98987.53;7255386;19;153946;-55
2023/03/09 01:53:45;;;;;;;;;;;;;;;19.50;37.51;98984.25;7250514;19;154034;-57
2023/03/09 01:56:14;;;;;;;;;;;;;;;19.49;37.47;98996.59;7256370;19;154484;-56
2023/03/09 01:58:41;;;;;;;;;;;;;;;19.44;37.83;98992.06;7251039;19;154214;-56
2023/03/09 02:01:09;;;;;;;;;;;;;;;19.45;37.60;98998.47;7260208;19;153086;-56
2023/03/09 02:03:40;;;;;;;;;;;;;;;19.43;37.57;99001.66;7256225;19;153789;-56
2023/03/09 02:06:11;;;;;;;;;;;;;;;19.39;37.98;99006.28;7254932;19;153563;-56
2023/03/09 02:08:41;;;;;;;;;;;;;;;19.36;38.17;99001.34;7254208;19;153535;-56
2023/03/09 02:11:11;;;;;;;;;;;;;;;19.37;37.61;99008.59;7254377;19;154375;-56
2023/03/09 02:13:41;;;;;;;;;;;;;;;19.36;37.67;99006.97;7252077;19;152886;-57
2023/03/09 02:16:09;;;;;;;;;;;;;;;19.36;37.64;99003.34;7256187;19;153902;-56
2023/03/09 02:18:37;;;;;;;;;;;;;;;19.32;37.90;99002.41;7253390;19;153737;-56
2023/03/09 02:21:06;;;;;;;;;;;;;;;19.30;37.90;98999.16;7253766;19;153976;-56
2023/03/09 02:23:33;;;;;;;;;;;;;;;19.26;38.22;99010.19;7265897;19;153884;-55
2023/03/09 02:26:03;;;;;;;;;;;;;;;19.25;38.29;98999.38;7263812;19;154990;-55
2023/03/09 02:28:30;;;;;;;;;;;;;;;19.23;37.98;99004.47;7254655;19;153631;-55
2023/03/09 02:30:57;;;;;;;;;;;;;;;19.19;38.14;99017.53;7257095;19;154968;-56
2023/03/09 02:33:26;;;;;;;;;;;;;;;19.19;38.43;99023.97;7254939;19;153984;-56
2023/03/09 02:35:55;;;;;;;;;;;;;;;19.16;38.33;99029.44;7255547;19;153263;-56
2023/03/09 02:38:23;;;;;;;;;;;;;;;19.14;38.21;99035.38;7252135;19;154372;-56
2023/03/09 02:40:50;;;;;;;;;;;;;;;19.13;38.62;99035.72;7250771;19;154741;-56
2023/03/09 02:43:20;;;;;;;;;;;;;;;19.10;38.29;99029.66;7253198;19;154716;-56
2023/03/09 02:45:48;;;;;;;;;;;;;;;19.08;38.35;99026.38;7261085;19;154122;-56
2023/03/09 02:48:15;;;;;;;;;;;;;;;19.06;38.50;99031.50;7254853;19;153578;-56
2023/03/09 02:50:43;;;;;;;;;;;;;;;19.04;38.76;99039.44;7252331;19;154315;-56
2023/03/09 02:53:11;;;;;;;;;;;;;;;19.02;38.86;99044.56;7252562;19;154386;-55
2023/03/09 02:55:38;;;;;;;;;;;;;;;19.01;38.72;99048.53;7247629;19;153204;-55
2023/03/09 02:58:05;;;;;;;;;;;;;;;18.98;38.61;99043.63;7256475;19;153773;-56
2023/03/09 03:00:32;;;;;;;;;;;;;;;18.96;38.68;99043.13;7251960;19;153880;-55
2023/03/09 03:02:59;;;;;;;;;;;;;;;18.94;38.76;99050.25;7254580;19;153725;-56
2023/03/09 03:05:26;;;;;;;;;;;;;;;18.92;38.93;99067.38;7238471;19;154437;-55
2023/03/09 03:07:53;;;;;;;;;;;;;;;18.90;38.87;99071.66;7263583;19;153963;-56
2023/03/09 03:10:20;;;;;;;;;;;;;;;18.88;38.95;99074.00;7260534;19;154704;-56
2023/03/09 03:12:47;;;;;;;;;;;;;;;18.86;38.74;99065.13;7259729;19;154163;-56
2023/03/09 03:15:15;;;;;;;;;;;;;;;18.84;38.78;99062.69;7245590;19;153080;-59
2023/03/09 03:17:42;;;;;;;;;;;;;;;18.85;38.73;99074.69;7260609;19;154462;-56
2023/03/09 03:22:41;;;;;;;;;;;;;;;18.78;39.00;99091.19;7260750;19;153124;-57
2023/03/09 03:25:08;;;;;;;;;;;;;;;18.76;39.28;99097.13;7245959;19;155327;-56
2023/03/09 03:27:35;;;;;;;;;;;;;;;18.76;39.31;99097.13;7262794;19;153597;-56
2023/03/09 03:30:02;;;;;;;;;;;;;;;18.74;38.98;99110.66;7260656;19;153243;-56
2023/03/09 03:32:29;;;;;;;;;;;;;;;18.74;39.17;99118.22;7260270;19;153504;-56
2023/03/09 03:34:57;;;;;;;;;;;;;;;18.70;39.23;99129.28;7250009;19;153396;-56
2023/03/09 03:37:24;;;;;;;;;;;;;;;18.68;39.50;99120.41;7249267;19;153469;-56
2023/03/09 03:39:51;;;;;;;;;;;;;;;18.67;39.29;99121.56;7260553;19;153774;-56
2023/03/09 03:42:18;;;;;;;;;;;;;;;18.64;39.44;99130.63;7257403;19;154663;-56
2023/03/09 03:44:45;;;;;;;;;;;;;;;18.60;39.29;99124.91;7261102;19;154448;-56
2023/03/09 03:47:12;;;;;;;;;;;;;;;18.59;39.25;99123.25;7259148;19;153799;-56
2023/03/09 03:49:40;;;;;;;;;;;;;;;18.56;39.64;99137.13;7266378;19;153427;-56
2023/03/09 03:52:09;;;;;;;;;;;;;;;18.56;39.35;99134.31;7256702;19;154275;-56
2023/03/09 03:54:36;;;;;;;;;;;;;;;18.55;39.35;99138.28;7259664;19;154097;-56
2023/03/09 03:57:03;;;;;;;;;;;;;;;18.52;39.42;99141.72;7261551;19;154148;-56
2023/03/09 03:59:30;;;;;;;;;;;;;;;18.50;39.70;99132.84;7259208;19;154411;-56
2023/03/09 04:01:57;;;;;;;;;;;;;;;18.48;39.71;99132.38;7259580;19;153230;-56
2023/03/09 04:04:24;;;;;;;;;;;;;;;18.48;39.71;99132.38;7262365;19;154443;-56
2023/03/09 04:06:51;;;;;;;;;;;;;;;18.44;39.58;99126.63;7254885;19;154420;-56
2023/03/09 04:09:18;;;;;;;;;;;;;;;18.44;39.96;99137.81;7262110;19;153732;-55
2023/03/09 04:11:45;;;;;;;;;;;;;;;18.42;39.80;99139.31;7267647;19;154100;-56
2023/03/09 04:14:12;;;;;;;;;;;;;;;18.39;40.13;99137.19;7258535;19;153438;-55
2023/03/09 04:16:39;;;;;;;;;;;;;;;18.38;39.77;99129.97;7258072;19;153449;-56
2023/03/09 04:19:06;;;;;;;;;;;;;;;18.36;40.14;99124.69;7256703;19;154921;-56
2023/03/09 04:21:33;;;;;;;;;;;;;;;18.37;40.40;99126.34;7256662;19;154025;-56
2023/03/09 04:24:00;;;;;;;;;;;;;;;18.35;40.35;99130.66;7259031;19;152817;-56
2023/03/09 04:26:27;;;;;;;;;;;;;;;18.33;40.15;99130.16;7259551;19;154486;-56
2023/03/09 04:28:54;;;;;;;;;;;;;;;18.32;40.48;99126.53;7260795;19;154073;-57
2023/03/09 04:31:21;;;;;;;;;;;;;;;18.31;40.35;99138.03;7256276;19;153445;-57
2023/03/09 04:33:48;;;;;;;;;;;;;;;18.29;40.19;99151.56;7265443;19;154113;-56
2023/03/09 04:36:14;;;;;;;;;;;;;;;18.27;40.58;99162.25;7254576;19;153727;-56
2023/03/09 04:38:41;;;;;;;;;;;;;;;18.26;40.54;99157.84;7255728;19;153237;-57
2023/03/09 04:41:10;;;;;;;;;;;;;;;18.25;40.56;99164.56;7258439;19;152758;-57
2023/03/09 04:43:37;;;;;;;;;;;;;;;18.23;40.48;99162.09;7257362;19;154381;-56
2023/03/09 04:46:04;;;;;;;;;;;;;;;18.21;40.68;99156.84;7253777;19;155900;-57
2023/03/09 04:48:31;;;;;;;;;;;;;;;18.21;40.62;99161.63;7260007;19;153254;-56
2023/03/09 04:50:58;;;;;;;;;;;;;;;18.19;40.59;99152.75;7254695;19;153098;-56
2023/03/09 04:53:25;;;;;;;;;;;;;;;18.19;40.72;99155.56;7254486;19;153625;-56
2023/03/09 04:55:52;;;;;;;;;;;;;;;18.16;40.67;99165.44;7261396;19;153694;-56
2023/03/09 04:58:19;;;;;;;;;;;;;;;18.14;40.42;99176.13;7256546;19;153838;-56
2023/03/09 05:00:46;;;;;;;;;;;;;;;18.12;40.40;99186.84;7258212;19;154374;-57
2023/03/09 05:03:13;;;;;;;;;;;;;;;18.13;40.47;99196.00;7257631;19;153363;-56
2023/03/09 05:05:40;;;;;;;;;;;;;;;18.11;40.85;99201.13;7253013;19;153907;-56
2023/03/09 05:08:07;;;;;;;;;;;;;;;18.07;40.56;99198.19;7255307;19;153882;-56
2023/03/09 05:10:34;;;;;;;;;;;;;;;18.08;40.80;99204.63;7258804;19;152235;-56
2023/03/09 05:13:01;;;;;;;;;;;;;;;18.05;40.51;99203.28;7257457;19;152622;-57
2023/03/09 05:15:28;;;;;;;;;;;;;;;18.05;40.87;99202.47;7256900;19;153463;-57
2023/03/09 05:17:55;;;;;;;;;;;;;;;18.03;40.54;99208.41;7262700;19;153233;-57
2023/03/09 05:20:23;;;;;;;;;;;;;;;18.03;40.72;99216.78;7256172;19;153542;-57
2023/03/09 05:22:54;;;;;;;;;;;;;;;18.10;40.80;99217.09;7256602;19;153753;-58
2023/03/09 05:25:22;;;;;;;;;;;;;;;18.14;40.80;99220.84;7253879;19;155630;-57
2023/03/09 05:31:09;;;;;;;;;;;;;;;18.20;40.56;99211.13;7256007;19;153192;-56
2023/03/09 05:33:36;;;;;;;;;;;;;;;18.25;40.60;99212.09;7254256;19;155046;-56
2023/03/09 05:36:13;;;;;;;;;;;;;;;18.29;41.08;99199.09;7253649;19;152294;-56
2023/03/09 05:38:40;;;;;;;;;;;;;;;18.32;41.29;99193.63;7264824;19;153812;-56
2023/03/09 05:41:07;;;;;;;;;;;;;;;18.36;41.37;99190.97;7257759;19;153912;-56
2023/03/09 05:43:35;;;;;;;;;;;;;;;18.41;41.45;99193.59;7257508;19;153064;-56
2023/03/09 05:46:03;;;;;;;;;;;;;;;18.46;41.40;99191.44;7251340;19;152942;-56
2023/03/09 05:48:30;;;;;;;;;;;;;;;18.51;41.40;99182.03;7255048;19;153552;-56
2023/03/09 05:51:00;;;;;;;;;;;;;;;18.54;41.58;99172.97;7255483;19;154090;-56
2023/03/09 05:53:27;;;;;;;;;;;;;;;18.59;41.31;99167.19;7254500;19;154304;-55
2023/03/09 05:55:56;;;;;;;;;;;;;;;18.63;41.60;99182.97;7251697;19;152709;-55
2023/03/09 05:58:22;;;;;;;;;;;;;;;18.69;41.58;99200.38;7257790;19;152876;-55
2023/03/09 06:00:52;;;;;;;;;;;;;;;18.73;41.52;99194.91;7260854;19;155139;-56
2023/03/09 06:03:19;;;;;;;;;;;;;;;18.79;41.48;99196.38;7258265;19;154031;-55
2023/03/09 06:05:46;;;;;;;;;;;;;;;18.83;41.41;99203.75;7253433;19;154230;-56
2023/03/09 06:08:13;;;;;;;;;;;;;;;18.88;41.24;99206.34;7256648;19;153959;-56
2023/03/09 06:10:40;;;;;;;;;;;;;;;18.93;41.41;99194.13;7259020;19;153352;-55
2023/03/09 06:13:08;;;;;;;;;;;;;;;18.97;41.37;99201.50;7254289;19;155283;-55
2023/03/09 06:15:37;;;;;;;;;;;;;;;19.03;40.90;99210.53;7256390;19;153500;-56
2023/03/09 06:18:04;;;;;;;;;;;;;;;19.08;41.07;99213.09;7256381;19;154193;-55
2023/03/09 06:20:31;;;;;;;;;;;;;;;19.13;41.08;99198.91;7255589;19;154417;-56
2023/03/09 06:22:58;;;;;;;;;;;;;;;19.19;40.79;99191.13;7264303;19;154361;-55
2023/03/09 06:25:25;;;;;;;;;;;;;;;19.22;40.94;99196.84;7254155;19;156337;-55
2023/03/09 06:27:53;;;;;;;;;;;;;;;19.29;40.81;99201.91;7256796;19;153450;-56
2023/03/09 06:30:21;;;;;;;;;;;;;;;19.33;40.75;99205.66;7256297;19;154634;-55
2023/03/09 06:32:48;;;;;;;;;;;;;;;19.37;40.34;99196.22;7255310;19;154475;-56
2023/03/09 06:35:15;;;;;;;;;;;;;;;19.42;40.37;99195.19;7252725;19;154885;-56
2023/03/09 06:37:43;;;;;;;;;;;;;;;19.47;40.28;99203.41;7256605;19;152692;-56
2023/03/09 06:40:12;;;;;;;;;;;;;;;19.51;40.39;99191.19;7255268;19;154608;-56
2023/03/09 06:42:40;;;;;;;;;;;;;;;19.57;40.42;99185.38;7256496;19;154110;-56
2023/03/09 06:45:07;;;;;;;;;;;;;;;19.61;40.21;99191.91;7271669;19;153563;-57
2023/03/09 06:47:35;;;;;;;;;;;;;;;19.67;40.39;99190.56;7261697;19;154192;-56
2023/03/09 06:50:02;;;;;;;;;;;;;;;19.72;40.20;99184.69;7259270;19;153680;-56
2023/03/09 06:52:31;;;;;;;;;;;;;;;19.74;40.13;99183.22;7257890;19;153495;-56
2023/03/09 06:54:58;;;;;;;;;;;;;;;19.80;40.14;99181.00;7259838;19;154026;-56
2023/03/09 06:57:41;;;;;;;;;;;;;;;19.83;40.05;99169.91;7259983;19;153128;-56
2023/03/09 07:00:11;;;;;;;;;;;;;;;19.88;40.00;99180.09;7256976;19;153304;-56
2023/03/09 07:02:38;;;;;;;;;;;;;;;19.93;40.41;99179.88;7260689;19;154327;-56
2023/03/09 07:05:06;;;;;;;;;;;;;;;19.97;39.86;99176.03;7260410;19;153276;-57
2023/03/09 07:07:34;;;;;;;;;;;;;;;20.03;39.85;99181.41;7268125;19;153534;-57
2023/03/09 07:10:01;;;;;;;;;;;;;;;20.05;39.78;99176.25;7261034;19;153786;-56
2023/03/09 07:12:28;;;;;;;;;;;;;;;20.09;39.88;99183.63;7259782;19;153108;-56
2023/03/09 07:14:55;;;;;;;;;;;;;;;20.14;40.11;99183.41;7261396;19;152787;-55
2023/03/09 07:17:22;;;;;;;;;;;;;;;20.18;39.96;99186.31;7258939;19;154681;-56
2023/03/09 07:19:51;;;;;;;;;;;;;;;20.23;39.92;99186.09;7259862;19;153133;-55
2023/03/09 07:22:18;;;;;;;;;;;;;;;20.27;39.86;99181.41;7259513;19;153211;-56
2023/03/09 07:24:45;;;;;;;;;;;;;;;20.31;40.26;99182.38;7262734;19;154088;-55
2023/03/09 07:27:12;;;;;;;;;;;;;;;20.34;40.03;99193.75;7259504;19;154085;-57
2023/03/09 07:29:40;;;;;;;;;;;;;;;20.38;40.00;99194.69;7267514;19;154426;-56
2023/03/09 07:32:07;;;;;;;;;;;;;;;20.41;39.91;99187.53;7259043;19;155193;-56
2023/03/09 07:34:34;;;;;;;;;;;;;;;20.45;40.01;99196.88;7264254;19;154684;-56
2023/03/09 07:37:01;;;;;;;;;;;;;;;20.49;39.78;99188.59;7255508;19;153442;-56
2023/03/09 07:39:28;;;;;;;;;;;;;;;20.52;39.72;99187.88;7259734;19;153710;-56
2023/03/09 07:41:55;;;;;;;;;;;;;;;20.54;39.61;99191.97;7257514;19;154350;-56
2023/03/09 07:44:22;;;;;;;;;;;;;;;20.58;39.58;99175.28;7260931;19;152695;-56
2023/03/09 07:46:49;;;;;;;;;;;;;;;20.61;39.15;99186.59;7257220;19;153453;-56
2023/03/09 07:49:18;;;;;;;;;;;;;;;20.64;39.07;99185.88;7266749;19;154645;-56
2023/03/09 07:51:45;;;;;;;;;;;;;;;20.67;39.15;99184.38;7256686;19;154639;-56
2023/03/09 07:54:12;;;;;;;;;;;;;;;20.69;39.37;99185.66;7259882;19;154111;-56
2023/03/09 07:56:39;;;;;;;;;;;;;;;20.71;39.15;99176.88;7261469;19;153556;-56
2023/03/09 07:59:06;;;;;;;;;;;;;;;20.73;38.79;99180.16;7261818;19;153797;-56
2023/03/09 08:01:33;;;;;;;;;;;;;;;20.75;38.78;99170.22;7258042;19;154858;-56
2023/03/09 08:04:01;;;;;;;;;;;;;;;20.77;38.74;99178.25;7260334;19;152955;-56
2023/03/09 08:06:28;;;;;;;;;;;;;;;20.78;38.83;99163.06;7257759;19;153739;-57
2023/03/09 08:08:55;;;;;;;;;;;;;;;20.79;39.01;99170.31;7261639;19;153447;-57
2023/03/09 08:11:23;;;;;;;;;;;;;;;20.79;38.52;99171.16;7264736;19;153183;-56
2023/03/09 08:13:50;;;;;;;;;;;;;;;20.81;38.67;99168.78;7261702;19;154100;-62
2023/03/09 08:16:17;;;;;;;;;;;;;;;20.82;38.66;99164.81;7256256;19;154010;-56
2023/03/09 08:18:45;;;;;;;;;;;;;;;20.83;38.61;99172.06;7255962;19;155310;-56
2023/03/09 08:21:13;;;;;;;;;;;;;;;20.83;38.61;99166.47;7257823;19;152402;-56
2023/03/09 08:23:41;;;;;;;;;;;;;;;20.82;38.86;99170.44;7259468;19;155605;-56
2023/03/09 08:26:11;;;;;;;;;;;;;;;20.83;38.60;99174.06;7256761;19;155114;-56
2023/03/09 08:28:39;;;;;;;;;;;;;;;20.81;38.75;99179.19;7258448;19;153854;-56
2023/03/09 08:31:08;;;;;;;;;;;;;;;20.83;38.77;99174.88;7256268;19;154078;-56
2023/03/09 08:33:35;;;;;;;;;;;;;;;20.81;38.37;99167.97;7263661;19;154526;-56
2023/03/09 08:36:06;;;;;;;;;;;;;;;20.82;38.32;99170.44;7256367;19;155663;-56
2023/03/09 08:38:34;;;;;;;;;;;;;;;20.79;38.44;99173.94;7257420;19;155872;-56
2023/03/09 08:41:02;;;;;;;;;;;;;;;20.79;38.64;99164.72;7263651;19;153720;-55
2023/03/09 08:43:30;;;;;;;;;;;;;;;20.75;38.69;99160.97;7261074;19;153661;-56
2023/03/09 08:45:57;;;;;;;;;;;;;;;20.75;38.40;99164.59;7253501;19;155034;-55
2023/03/09 08:48:25;;;;;;;;;;;;;;;20.72;38.70;99154.06;7255923;19;152803;-55
2023/03/09 08:50:53;;;;;;;;;;;;;;;20.71;38.42;99154.44;7256069;19;154864;-55
2023/03/09 08:53:20;;;;;;;;;;;;;;;20.68;38.71;99153.13;7255787;19;153902;-55
2023/03/09 08:55:48;;;;;;;;;;;;;;;20.68;38.71;99152.31;7266858;19;153728;-55
2023/03/09 08:58:15;;;;;;;;;;;;;;;20.64;38.99;99154.19;7260585;19;154525;-55
2023/03/09 09:00:42;;;;;;;;;;;;;;;20.62;39.06;99151.75;7260323;19;153610;-55
2023/03/09 09:03:10;;;;;;;;;;;;;;;20.63;38.68;99153.38;7257621;19;154236;-55
2023/03/09 09:05:38;;;;;;;;;;;;;;;20.56;38.93;99139.13;7256366;19;154473;-55
2023/03/09 09:08:07;;;;;;;;;;;;;;;20.53;38.88;99139.84;7258086;19;155227;-55
2023/03/09 09:10:37;;;;;;;;;;;;;;;20.51;39.02;99149.78;7258172;19;156972;-55
2023/03/09 09:13:05;;;;;;;;;;;;;;;20.49;38.88;99152.13;7254349;19;156786;-55
2023/03/09 09:15:33;;;;;;;;;;;;;;;20.47;38.57;99152.47;7260651;19;154078;-55
2023/03/09 09:18:00;;;;;;;;;;;;;;;20.50;38.87;99160.19;7261242;19;154583;-55
2023/03/09 09:20:28;;;;;;;;;;;;;;;20.51;38.98;99150.59;7256452;19;152094;-55
2023/03/09 09:22:55;;;;;;;;;;;;;;;20.53;38.64;99153.06;7259618;19;153402;-55
2023/03/09 09:25:22;;;;;;;;;;;;;;;20.56;39.01;99150.34;7258587;19;154051;-56
2023/03/09 09:27:51;;;;;;;;;;;;;;;20.57;38.70;99151.19;7259720;19;153673;-56
2023/03/09 09:30:18;;;;;;;;;;;;;;;20.58;39.25;99148.00;7256879;19;153948;-56
2023/03/09 09:32:46;;;;;;;;;;;;;;;20.62;39.27;99150.94;7256378;19;154549;-56
2023/03/09 09:35:14;;;;;;;;;;;;;;;20.64;39.00;99142.97;7256785;19;153868;-56
2023/03/09 09:37:42;;;;;;;;;;;;;;;20.66;39.11;99143.44;7257885;19;153855;-55
2023/03/09 09:40:12;;;;;;;;;;;;;;;20.68;38.87;99146.72;7263623;19;154085;-56
2023/03/09 09:42:43;;;;;;;;;;;;;;;20.71;39.04;99148.81;7257856;19;153825;-56
2023/03/09 09:45:20;;;;;;;;;;;;;;;20.72;38.65;99148.44;7255005;19;154402;-56
2023/03/09 09:47:48;;;;;;;;;;;;;;;20.74;38.97;99140.50;7257226;19;153336;-56
2023/03/09 09:50:16;;;;;;;;;;;;;;;20.77;38.97;99138.97;7260145;19;153658;-56
2023/03/09 09:52:46;;;;;;;;;;;;;;;20.79;38.72;99143.06;7257907;19;152973;-56
2023/03/09 09:55:14;;;;;;;;;;;;;;;20.79;38.39;99134.66;7261906;19;154151;-56
2023/03/09 09:57:43;;;;;;;;;;;;;;;20.82;38.62;99130.31;7259423;19;153502;-56
2023/03/09 10:00:12;;;;;;;;;;;;;;;20.83;38.81;99141.19;7261246;19;153502;-57
2023/03/09 10:02:43;;;;;;;;;;;;;;;20.86;38.56;99129.25;7257120;19;154849;-56
2023/03/09 10:05:15;;;;;;;;;;;;;;;20.88;39.05;99128.91;7256256;19;154012;-57
2023/03/09 10:07:43;;;;;;;;;;;;;;;20.92;38.92;99114.97;7253386;19;153617;-56
2023/03/09 10:10:16;;;;;;;;;;;;;;;20.95;39.01;99122.66;7256705;19;154195;-56
2023/03/09 10:12:44;;;;;;;;;;;;;;;20.98;38.96;99119.16;7248681;19;154192;-56
2023/03/09 10:15:15;;;;;;;;;;;;;;;21.01;39.04;99112.81;7255558;19;153709;-57
2023/03/09 10:17:46;;;;;;;;;;;;;;;21.03;38.78;99107.69;7253449;19;153444;-57
2023/03/09 10:20:14;;;;;;;;;;;;;;;21.04;38.90;99098.88;7249247;19;152739;-57
2023/03/09 10:22:44;;;;;;;;;;;;;;;21.08;38.72;99098.97;7262088;19;153064;-57
2023/03/09 10:25:12;;;;;;;;;;;;;;;21.10;38.65;99096.66;7255323;19;155444;-56
2023/03/09 10:27:42;;;;;;;;;;;;;;;21.13;38.77;99093.16;7252704;19;154729;-56
2023/03/09 10:30:10;;;;;;;;;;;;;;;21.15;38.77;99093.63;7252497;19;153318;-56
2023/03/09 10:32:40;;;;;;;;;;;;;;;21.17;38.69;99089.25;7247999;19;154921;-56
2023/03/09 10:35:08;;;;;;;;;;;;;;;21.20;38.68;99082.13;7252095;19;154270;-56
2023/03/09 10:37:35;;;;;;;;;;;;;;;21.22;38.30;99086.19;7253868;19;153887;-57
2023/03/09 10:40:07;;;;;;;;;;;;;;;21.24;38.66;99085.84;7249503;19;154488;-56
2023/03/09 10:42:36;;;;;;;;;;;;;;;21.27;38.39;99088.75;7250276;19;154575;-56
2023/03/09 10:45:06;;;;;;;;;;;;;;;21.29;38.44;99085.59;7256607;19;155304;-57
2023/03/09 10:47:37;;;;;;;;;;;;;;;21.32;38.53;99087.69;7253663;19;152731;-56
2023/03/09 10:50:07;;;;;;;;;;;;;;;21.35;38.50;99072.13;7252589;19;153153;-56
2023/03/09 10:52:49;;;;;;;;;;;;;;;21.37;37.99;99083.78;7250981;19;153475;-56
2023/03/09 10:55:19;;;;;;;;;;;;;;;21.39;38.06;99081.44;7253984;19;154096;-56
2023/03/09 10:57:55;;;;;;;;;;;;;;;21.30;38.15;99076.00;7252299;19;156545;-56
2023/03/09 11:00:22;;;;;;;;;;;;;;;20.89;37.21;99070.78;7253226;19;154127;-56
2023/03/09 11:02:52;;;;;;;;;;;;;;;20.76;37.28;99076.41;7250518;19;154049;-56
2023/03/09 11:05:21;;;;;;;;;;;;;;;21.03;36.84;99069.16;7253219;19;154110;-56
2023/03/09 11:07:52;;;;;;;;;;;;;;;21.09;37.11;99061.31;7259249;19;153657;-56
2023/03/09 11:10:23;;;;;;;;;;;;;;;21.11;37.04;99059.78;7251948;19;154713;-56
2023/03/09 11:12:51;;;;;;;;;;;;;;;21.11;37.47;99061.78;7248639;19;154324;-56
2023/03/09 11:15:18;;;;;;;;;;;;;;;21.13;37.15;99056.63;7251447;19;152393;-56
2023/03/09 11:17:46;;;;;;;;;;;;;;;21.08;37.26;99063.28;7251742;19;154830;-56
2023/03/09 11:20:18;;;;;;;;;;;;;;;21.05;37.29;99055.59;7251799;19;152363;-56
2023/03/09 11:22:49;;;;;;;;;;;;;;;21.03;37.55;99057.16;7251101;19;154259;-56
2023/03/09 11:25:21;;;;;;;;;;;;;;;20.98;37.42;99048.97;7252538;19;152084;-56
2023/03/09 11:27:53;;;;;;;;;;;;;;;20.98;37.68;99038.56;7250365;19;154899;-56
2023/03/09 11:30:23;;;;;;;;;;;;;;;20.95;37.24;99044.06;7262073;19;153444;-56
2023/03/09 11:32:52;;;;;;;;;;;;;;;20.90;37.35;99041.50;7258750;19;154491;-56
2023/03/09 11:35:21;;;;;;;;;;;;;;;20.87;37.65;99031.81;7257296;19;153252;-56
2023/03/09 11:37:52;;;;;;;;;;;;;;;20.85;37.37;99040.59;7260407;19;152806;-57
2023/03/09 11:40:21;;;;;;;;;;;;;;;20.84;37.60;99040.97;7258179;19;155583;-56
2023/03/09 11:42:52;;;;;;;;;;;;;;;20.82;37.74;99030.09;7260556;19;153955;-57
2023/03/09 11:45:21;;;;;;;;;;;;;;;20.88;37.58;99027.84;7258454;19;154809;-57
2023/03/09 11:47:55;;;;;;;;;;;;;;;20.87;37.79;99023.41;7256795;19;154185;-57
2023/03/09 11:50:24;;;;;;;;;;;;;;;20.83;37.80;99026.09;7265204;19;153510;-56
2023/03/09 11:52:54;;;;;;;;;;;;;;;20.78;38.03;99034.78;7258325;19;153640;-57
2023/03/09 11:55:24;;;;;;;;;;;;;;;20.80;38.30;99020.41;7257173;19;153505;-57
2023/03/09 11:57:56;;;;;;;;;;;;;;;20.83;37.91;99028.91;7257699;19;154574;-56
2023/03/09 12:00:26;;;;;;;;;;;;;;;20.82;38.06;99026.44;7255088;19;155311;-57
2023/03/09 12:02:57;;;;;;;;;;;;;;;20.78;38.16;99019.94;7260299;19;154230;-56
2023/03/09 12:05:27;;;;;;;;;;;;;;;20.76;37.78;99017.47;7258529;19;153772;-57
2023/03/09 12:08:00;;;;;;;;;;;;;;;20.74;37.72;99014.22;7256046;19;154310;-57
2023/03/09 12:10:30;;;;;;;;;;;;;;;20.74;37.87;99011.41;7259488;19;153202;-56
2023/03/09 12:13:01;;;;;;;;;;;;;;;20.68;37.96;99003.59;7268632;19;153773;-57
2023/03/09 12:15:32;;;;;;;;;;;;;;;20.69;37.97;99008.84;7257698;19;153447;-56
2023/03/09 12:18:03;;;;;;;;;;;;;;;20.66;37.91;99005.94;7254664;19;154437;-56
2023/03/09 12:20:30;;;;;;;;;;;;;;;20.65;37.98;99004.31;7253175;19;153775;-56
2023/03/09 12:22:58;;;;;;;;;;;;;;;20.67;38.00;98987.94;7259918;19;152992;-56
2023/03/09 12:25:27;;;;;;;;;;;;;;;20.69;37.84;98997.63;7258427;19;153806;-56
2023/03/09 12:27:56;;;;;;;;;;;;;;;20.72;38.14;99002.50;7253950;19;153699;-56
2023/03/09 12:30:24;;;;;;;;;;;;;;;20.77;37.81;98993.84;7257442;19;153783;-56
2023/03/09 12:32:56;;;;;;;;;;;;;;;20.84;37.89;98996.88;7260637;19;153350;-56
2023/03/09 12:35:24;;;;;;;;;;;;;;;20.88;37.89;98982.94;7265652;19;154148;-56
2023/03/09 12:37:55;;;;;;;;;;;;;;;20.92;37.68;98983.03;7258155;19;154472;-56
2023/03/09 12:40:26;;;;;;;;;;;;;;;20.96;38.03;98983.94;7258003;19;154162;-56
2023/03/09 12:42:55;;;;;;;;;;;;;;;20.99;37.70;98980.41;7251842;19;153965;-56
2023/03/09 12:45:25;;;;;;;;;;;;;;;21.00;37.67;98966.00;7254702;19;154179;-56